createdAt,value
2019-04-07T00:01:52.694Z,56.60
2019-04-07T00:06:58.829Z,49.67
2019-04-07T00:12:04.484Z,50.00
2019-04-07T00:17:10.525Z,54.60
2019-04-07T00:22:16.299Z,51.73
2019-04-07T00:27:22.360Z,56.53
2019-04-07T00:32:28.586Z,52.30
2019-04-07T00:37:34.337Z,56.68
2019-04-07T00:42:40.244Z,52.58
2019-04-07T00:47:46.136Z,56.63
2019-04-07T00:52:52.525Z,55.30
2019-04-07T00:57:59.456Z,54.65
2019-04-07T01:03:05.396Z,51.63
2019-04-07T01:08:11.719Z,56.37
2019-04-07T01:13:17.639Z,53.23
2019-04-07T01:18:26.814Z,47.15
2019-04-07T01:23:32.522Z,55.52
2019-04-07T01:28:38.103Z,47.62
2019-04-07T01:33:44.267Z,47.38
2019-04-07T01:38:50.240Z,47.62
2019-04-07T01:44:13.434Z,39.15
2019-04-07T01:49:23.811Z,41.50
2019-04-07T01:54:33.919Z,41.55
2019-04-07T01:59:41.077Z,40.92
2019-04-07T02:04:58.063Z,36.75
2019-04-07T02:10:09.752Z,35.73
2019-04-07T02:15:32.977Z,38.23
2019-04-07T02:20:52.198Z,37.13
2019-04-07T02:26:15.694Z,38.35
2019-04-07T02:31:23.860Z,34.95
2019-04-07T02:36:37.673Z,33.15
2019-04-07T02:41:45.082Z,38.60
2019-04-07T02:46:52.181Z,37.78
2019-04-07T02:52:18.530Z,37.55
2019-04-07T02:57:32.007Z,37.42
2019-04-07T03:02:39.423Z,37.30
2019-04-07T03:07:50.454Z,34.55
2019-04-07T03:12:58.877Z,35.17
2019-04-07T03:18:24.139Z,37.93
2019-04-07T03:23:30.532Z,35.95
2019-04-07T03:28:52.781Z,37.05
2019-04-07T03:34:20.773Z,34.55
2019-04-07T03:39:34.459Z,34.13
2019-04-07T03:44:41.610Z,36.42
2019-04-07T03:49:51.691Z,39.00
2019-04-07T03:55:02.266Z,42.40
2019-04-07T04:00:15.490Z,38.17
2019-04-07T04:05:41.395Z,35.63
2019-04-07T04:10:48.686Z,45.23
2019-04-07T04:15:58.942Z,40.30
2019-04-07T04:21:04.639Z,38.23
2019-04-07T04:26:10.263Z,38.95
2019-04-07T04:31:15.883Z,36.45
2019-04-07T04:36:22.169Z,42.27
2019-04-07T04:41:27.843Z,42.95
2019-04-07T04:46:34.415Z,38.13
2019-04-07T04:51:40.981Z,39.23
2019-04-07T04:56:46.959Z,39.25
2019-04-07T05:01:53.153Z,40.28
2019-04-07T05:06:59.487Z,40.20
2019-04-07T05:12:06.126Z,36.75
2019-04-07T05:17:12.665Z,35.08
2019-04-07T05:22:18.217Z,38.65
2019-04-07T05:27:23.941Z,33.95
2019-04-07T05:32:29.591Z,33.33
2019-04-07T05:37:35.416Z,33.92
2019-04-07T05:42:41.217Z,34.88
2019-04-07T05:47:48.677Z,31.17
2019-04-07T05:52:54.039Z,34.15
2019-04-07T05:58:03.440Z,32.10
2019-04-07T06:03:08.440Z,37.93
2019-04-07T06:08:24.772Z,30.52
2019-04-07T06:13:22.517Z,26.87
2019-04-07T06:18:31.935Z,40.85
2019-04-07T06:23:36.424Z,36.53
2019-04-07T06:28:42.023Z,28.05
2019-04-07T06:33:47.948Z,26.90
2019-04-07T06:38:53.720Z,29.98
2019-04-07T06:44:10.508Z,25.68
2019-04-07T06:49:12.349Z,27.58
2019-04-07T06:54:23.228Z,30.40
2019-04-07T06:59:33.142Z,25.10
2019-04-07T07:04:43.568Z,28.65
2019-04-07T07:09:49.140Z,55.98
2019-04-07T07:14:58.269Z,29.48
2019-04-07T07:20:27.605Z,33.45
2019-04-07T07:25:32.444Z,32.90
2019-04-07T07:30:40.445Z,35.83
2019-04-07T07:35:49.089Z,29.15
2019-04-07T07:40:53.482Z,30.85
2019-04-07T07:45:59.334Z,30.85
2019-04-07T07:51:08.108Z,30.75
2019-04-07T07:56:14.301Z,28.38
2019-04-07T08:01:20.029Z,27.17
2019-04-07T08:06:26.272Z,24.65
2019-04-07T08:11:34.405Z,24.82
2019-04-07T08:16:40.096Z,26.75
2019-04-07T08:21:50.305Z,28.38
2019-04-07T08:26:56.464Z,25.05
2019-04-07T08:32:03.230Z,26.00
2019-04-07T08:37:09.517Z,25.08
2019-04-07T08:42:18.617Z,28.42
2019-04-07T08:47:23.443Z,28.77
2019-04-07T08:52:29.118Z,22.95
2019-04-07T08:57:35.743Z,32.90
2019-04-07T09:02:41.656Z,30.12
2019-04-07T09:07:47.218Z,24.37
2019-04-07T09:12:52.769Z,25.82
2019-04-07T09:18:01.529Z,28.20
2019-04-07T09:23:12.418Z,25.85
2019-04-07T09:28:40.337Z,27.02
2019-04-07T09:33:50.678Z,26.97
2019-04-07T09:39:04.225Z,27.45
2019-04-07T09:44:11.526Z,23.95
2019-04-07T09:49:23.551Z,24.60
2019-04-07T09:54:36.168Z,24.35
2019-04-07T10:00:00.455Z,23.27
2019-04-07T10:05:24.945Z,25.77
2019-04-07T10:10:35.068Z,27.95
2019-04-07T10:15:43.125Z,31.17
2019-04-07T10:20:50.361Z,31.30
2019-04-07T10:26:00.581Z,27.98
2019-04-07T10:31:08.341Z,25.72
2019-04-07T10:36:19.465Z,24.67
2019-04-07T10:41:43.147Z,27.75
2019-04-07T10:47:02.413Z,24.27
2019-04-07T10:52:26.054Z,28.87
2019-04-07T10:57:33.436Z,25.52
2019-04-07T11:02:58.658Z,27.55
2019-04-07T11:08:14.978Z,27.37
2019-04-07T11:13:24.667Z,22.70
2019-04-07T11:18:47.718Z,25.72
2019-04-07T11:24:06.890Z,25.95
2019-04-07T11:29:16.653Z,27.40
2019-04-07T11:34:24.731Z,24.70
2019-04-07T11:39:32.651Z,26.48
2019-04-07T11:44:51.809Z,27.07
2019-04-07T11:50:15.349Z,25.70
2019-04-07T11:55:30.057Z,26.42
2019-04-07T12:00:53.917Z,26.65
2019-04-07T12:06:18.129Z,37.48
2019-04-07T12:11:25.930Z,26.20
2019-04-07T12:16:39.149Z,51.58
2019-04-07T12:21:46.800Z,29.07
2019-04-07T12:27:06.744Z,24.90
2019-04-07T12:32:13.836Z,27.98
2019-04-07T12:37:39.235Z,30.88
2019-04-07T12:42:51.306Z,27.52
2019-04-07T12:48:14.565Z,28.77
2019-04-07T12:53:40.057Z,27.90
2019-04-07T12:59:05.579Z,26.68
2019-04-07T13:04:29.925Z,30.62
2019-04-07T13:09:40.640Z,25.37
2019-04-07T13:14:47.882Z,30.30
2019-04-07T13:20:11.942Z,26.80
2019-04-07T13:25:29.958Z,29.07
2019-04-07T13:30:54.881Z,25.43
2019-04-07T13:36:02.132Z,34.70
2019-04-07T13:41:09.434Z,30.10
2019-04-07T13:46:31.823Z,27.52
2019-04-07T13:51:49.512Z,28.47
2019-04-07T13:57:11.945Z,26.10
2019-04-07T14:02:35.595Z,30.72
2019-04-07T14:07:42.824Z,27.98
2019-04-07T14:13:06.331Z,29.77
2019-04-07T14:18:16.658Z,28.27
2019-04-07T14:23:24.066Z,30.72
2019-04-07T14:28:50.089Z,29.48
2019-04-07T14:34:14.018Z,27.67
2019-04-07T14:39:37.276Z,31.02
2019-04-07T14:44:47.439Z,32.93
2019-04-07T14:49:58.927Z,27.65
2019-04-07T14:55:10.896Z,29.52
2019-04-07T15:00:34.017Z,28.67
2019-04-07T15:05:49.477Z,26.90
2019-04-07T15:10:56.656Z,30.95
2019-04-07T15:16:03.934Z,29.80
2019-04-07T15:21:09.907Z,30.25
2019-04-07T15:26:16.707Z,28.38
2019-04-07T15:31:23.160Z,31.42
2019-04-07T15:36:28.937Z,27.70
2019-04-07T15:41:34.643Z,28.87
2019-04-07T15:46:40.256Z,27.80
2019-04-07T15:51:45.785Z,32.73
2019-04-07T15:56:51.583Z,26.12
2019-04-07T16:01:57.341Z,29.02
2019-04-07T16:07:03.079Z,29.42
2019-04-07T16:12:10.006Z,28.65
2019-04-07T16:17:15.884Z,30.10
2019-04-07T16:22:21.448Z,33.58
2019-04-07T16:27:27.185Z,30.90
2019-04-07T16:32:33.859Z,28.47
2019-04-07T16:37:40.273Z,26.62
2019-04-07T16:43:02.656Z,28.77
2019-04-07T16:47:54.225Z,32.23
2019-04-07T16:53:03.033Z,27.58
2019-04-07T16:58:08.436Z,35.80
2019-04-07T17:03:15.274Z,34.73
2019-04-07T17:08:22.513Z,29.30
2019-04-07T17:13:38.137Z,30.00
2019-04-07T17:18:39.581Z,27.37
2019-04-07T17:23:45.636Z,31.90
2019-04-07T17:28:51.224Z,27.20
2019-04-07T17:33:56.858Z,28.02
2019-04-07T17:39:09.312Z,30.12
2019-04-07T17:44:22.086Z,26.73
2019-04-07T17:49:42.762Z,26.95
2019-04-07T17:54:58.990Z,29.77
2019-04-07T18:00:18.001Z,30.55
2019-04-07T18:05:38.713Z,31.55
2019-04-07T18:11:01.085Z,29.18
2019-04-07T18:16:25.544Z,31.75
2019-04-07T18:21:36.629Z,29.65
2019-04-07T18:26:45.256Z,29.48
2019-04-07T18:31:58.492Z,26.77
2019-04-07T18:37:13.653Z,29.98
2019-04-07T18:42:36.823Z,31.68
2019-04-07T18:48:00.132Z,26.80
2019-04-07T18:53:07.492Z,31.97
2019-04-07T18:58:31.174Z,31.57
2019-04-07T19:03:54.915Z,32.42
2019-04-07T19:09:02.133Z,31.05
2019-04-07T19:14:40.213Z,32.78
2019-04-07T19:19:37.521Z,31.62
2019-04-07T19:24:47.601Z,32.17
2019-04-07T19:30:13.859Z,31.15
2019-04-07T19:35:19.344Z,31.77
2019-04-07T19:40:38.736Z,31.33
2019-04-07T19:45:55.275Z,36.63
2019-04-07T19:51:03.185Z,30.25
2019-04-07T19:56:19.421Z,33.48
2019-04-07T20:01:29.222Z,33.38
2019-04-07T20:06:36.558Z,36.63
2019-04-07T20:11:49.897Z,33.40
2019-04-07T20:17:16.443Z,33.08
2019-04-07T20:22:24.055Z,32.53
2019-04-07T20:27:34.332Z,34.25
2019-04-07T20:32:47.193Z,33.25
2019-04-07T20:38:10.614Z,33.80
2019-04-07T20:43:35.098Z,35.43
2019-04-07T20:48:59.259Z,34.63
2019-04-07T20:54:07.581Z,34.73
2019-04-07T20:59:14.812Z,40.28
2019-04-07T21:04:39.573Z,38.90
2019-04-07T21:09:48.109Z,36.58
2019-04-07T21:15:21.125Z,37.50
2019-04-07T21:20:29.964Z,37.30
2019-04-07T21:25:51.678Z,35.13
2019-04-07T21:31:18.605Z,37.75
2019-04-07T21:36:28.211Z,37.98
2019-04-07T21:41:44.430Z,35.65
2019-04-07T21:47:06.468Z,34.15
2019-04-07T21:52:19.493Z,36.00
2019-04-07T21:57:30.612Z,36.83
2019-04-07T22:02:47.873Z,44.88
2019-04-07T22:08:16.996Z,40.70
2019-04-07T22:13:18.255Z,47.08
2019-04-07T22:18:23.976Z,39.53
2019-04-07T22:23:31.430Z,39.23
2019-04-07T22:28:37.285Z,41.33
2019-04-07T22:33:42.997Z,37.78
2019-04-07T22:38:51.688Z,39.25
2019-04-07T22:43:56.053Z,38.42
2019-04-07T22:49:01.739Z,40.90
2019-04-07T22:54:07.910Z,40.92
2019-04-07T22:59:13.595Z,43.68
2019-04-07T23:04:19.175Z,42.48
2019-04-07T23:09:25.901Z,43.25
2019-04-07T23:14:31.740Z,37.60
2019-04-07T23:19:37.882Z,40.73
2019-04-07T23:24:43.615Z,40.92
2019-04-07T23:29:49.294Z,47.45
2019-04-07T23:34:55.479Z,97.92
2019-04-07T23:40:02.413Z,58.55
2019-04-07T23:45:08.576Z,72.55
2019-04-07T23:50:15.516Z,75.28
2019-04-07T23:55:21.854Z,66.33
